Have a Safe July 4th! 

Flight Track Log - Related Links

Times and Time Zones

All times are in EDT time to prevent confusion due to time zone crossing. See the ENY3501 flight status page for this flight to view local times or setup timezone preferences in your user account.

Time Position Orientation Groundspeed Altitude Reporting Facility
EDT Latitude Longitude Course Direction KTS MPH feet Rate Location/Type
Wed 07:28:35 PM 40.8167 -73.8500 143° Southeast 169 194 1,600  Level New York TRACON
Wed 07:29:35 PM 40.8667 -73.8000 37° Northeast 240 276 3,600 2,368 Climbing New York TRACON
Wed 07:30:00 PM 40.5010 -73.6424 146° Southeast  Level FlightAware Approximate
Wed 07:30:29 PM 40.9000 -73.7500 49° Northeast 280 322 6,100  Level New York TRACON
Wed 07:31:00 PM 40.4115 -73.5615 143° Southeast  Level FlightAware Approximate
Wed 07:31:35 PM 40.8500 -73.6833 135° Southeast 279 321 7,900  Level New York TRACON
Wed 07:32:00 PM 40.3251 -73.4750 143° Southeast  Level FlightAware Approximate
Wed 07:32:35 PM 40.7833 -73.7167 201° Southwest 267 307 8,800  Level New York TRACON
Wed 07:33:00 PM 40.2387 -73.3887 143° Southeast  Level FlightAware Approximate
Wed 07:33:29 PM 40.7167 -73.7333 191° South 262 302 11,000  Level New York TRACON
Wed 07:35:32 PM 40.5383 -73.6822 168° South 358 412 12,000 973 Climbing New York Center
Wed 07:36:34 PM 40.4406 -73.5908 145° Southeast 378 435 14,000 1,934 Climbing New York Center
Wed 07:37:33 PM 40.3611 -73.5139 144° Southeast 394 453 15,900 1,761 Climbing New York Center
Wed 07:39:38 PM 40.1417 -73.5372 185° South 348 400 19,400 1,639 Climbing Washington Center
Wed 07:40:36 PM 40.0361 -73.5728 194° South 372 428 20,900 1,271 Climbing Washington Center
Wed 07:41:36 PM 39.9406 -73.5997 192° South 384 442 21,900 1,050 Climbing Washington Center
Wed 07:42:36 PM 39.8331 -73.6381 195° South 397 457 23,000 1,140 Climbing Washington Center
Wed 07:43:37 PM 39.7253 -73.6814 197° South 402 463 24,200 1,160 Climbing Washington Center
Wed 07:44:35 PM 39.6350 -73.7728 218° Southwest 396 456 25,300 864 Climbing Washington Center
Wed 07:45:35 PM 39.5489 -73.8664 220° Southwest 410 472 25,900 344 Climbing Washington Center
Wed 07:46:37 PM 39.4628 -73.9625 221° Southwest 416 479 26,000 49 Climbing Washington Center
Wed 07:47:37 PM 39.3744 -74.0611 221° Southwest 422 486 26,000  Level Washington Center
Wed 07:48:37 PM 39.2839 -74.1597 220° Southwest 429 494 26,000  Level Washington Center
Wed 07:49:36 PM 39.1933 -74.2581 220° Southwest 429 494 26,000  Level Washington Center
Wed 07:50:36 PM 39.1047 -74.3531 220° Southwest 423 487 26,000  Level Washington Center
Wed 07:51:37 PM 39.0142 -74.4508 220° Southwest 428 493 26,000  Level Washington Center
Wed 07:52:35 PM 38.9233 -74.5483 220° Southwest 428 493 26,000  Level Washington Center
Wed 07:53:35 PM 38.8325 -74.6483 221° Southwest 428 493 26,000  Level Washington Center
Wed 07:54:36 PM 38.7433 -74.7453 220° Southwest 428 493 26,000 -49 Level Washington Center
Wed 07:55:37 PM 38.6503 -74.8419 219° Southwest 428 493 25,900  Descending Washington Center
Wed 07:56:37 PM 38.5633 -74.9358 220° Southwest 423 487 26,000 50 Climbing Washington Center
Wed 07:57:37 PM 38.4742 -75.0294 219° Southwest 423 487 26,000  Level Washington Center
Wed 07:58:37 PM 38.3869 -75.1175 218° Southwest 423 487 26,000  Level Washington Center
Wed 07:59:35 PM 38.2997 -75.2133 221° Southwest 423 487 26,000  Level Washington Center
Wed 08:00:36 PM 38.2125 -75.3117 222° Southwest 423 487 26,000  Level Washington Center
Wed 08:01:35 PM 38.1208 -75.3992 217° Southwest 423 487 26,000  Level Washington Center
Wed 08:02:36 PM 38.0314 -75.4942 220° Southwest 429 494 26,000  Level Washington Center
Wed 08:03:37 PM 37.9436 -75.5997 223° Southwest 429 494 26,000  Level Washington Center
Wed 08:04:35 PM 37.8561 -75.6917 220° Southwest 429 494 26,000  Level Washington Center
Wed 08:05:35 PM 37.7683 -75.7889 221° Southwest 429 494 26,000  Level Washington Center
Wed 08:06:37 PM 37.6806 -75.8883 222° Southwest 429 494 26,000 -450 Level Washington Center
Wed 08:07:35 PM 37.5947 -75.9875 222° Southwest 429 494 25,100 -966 Descending Washington Center
Wed 08:08:35 PM 37.5236 -76.0972 231° Southwest 417 480 24,100 -545 Descending Washington Center
Wed 08:09:36 PM 37.4500 -76.2039 229° Southwest 411 473 24,000 -49 Descending Washington Center
Wed 08:10:37 PM 37.3764 -76.3131 230° Southwest 411 473 24,000  Level Washington Center
Wed 08:11:35 PM 37.3047 -76.4247 231° Southwest 411 473 24,000  Level Washington Center
Wed 08:12:36 PM 37.2331 -76.5336 230° Southwest 411 473 24,000  Level Washington Center
Wed 08:13:36 PM 37.1611 -76.6472 232° Southwest 416 479 24,000  Level Washington Center
Wed 08:14:37 PM 37.0872 -76.7608 231° Southwest 421 484 24,000 -500 Level Washington Center
Wed 08:15:36 PM 37.0172 -76.8742 232° Southwest 421 484 23,000 -1,000 Descending Washington Center
Wed 08:16:37 PM 36.9469 -76.9850 232° Southwest 416 479 22,000 -992 Descending Washington Center
Wed 08:17:37 PM 36.8747 -77.0900 229° Southwest 411 473 21,000 -1,017 Descending Washington Center
Wed 08:18:35 PM 36.8089 -77.1950 232° Southwest 411 473 20,000 -1,017 Descending Washington Center
Wed 08:19:35 PM 36.7383 -77.3025 231° Southwest 406 467 19,000 -992 Descending Washington Center
Wed 08:20:36 PM 36.6703 -77.4072 231° Southwest 406 467 18,000 -976 Descending Washington Center
Wed 08:21:38 PM 36.6017 -77.5117 231° Southwest 401 461 17,000 -908 Descending Washington Center
Wed 08:22:35 PM 36.5333 -77.6161 231° Southwest 401 461 16,200 -763 Descending Washington Center
Wed 08:23:36 PM 36.4669 -77.7203 232° Southwest 401 461 15,500 -738 Descending Washington Center
Wed 08:24:37 PM 36.3958 -77.8344 232° Southwest 396 456 14,700 -835 Descending Washington Center
Wed 08:25:31 PM 36.3294 -77.9278 229° Southwest 386 444 13,900 -857 Descending Washington Center
Wed 08:26:36 PM 36.2564 -78.0389 231° Southwest 391 450 13,000 -935 Descending Washington Center
Wed 08:26:48 PM 36.2411 -78.0592 227° Southwest 383 441 12,700 -1,000 Descending Washington Center
Wed 08:27:36 PM 36.1961 -78.1272 231° Southwest 386 444 12,000 -1,000 Descending Washington Center
Wed 08:27:48 PM 36.1786 -78.1575 234° Southwest 369 425 11,700 -1,082 Descending Washington Center
Wed 08:28:37 PM 36.1269 -78.2331 230° Southwest 374 430 10,900 -953 Descending Washington Center
Wed 08:29:35 PM 36.0794 -78.3058 231° Southwest 340 391 10,000 -960 Descending Washington Center
Wed 08:29:52 PM 36.0622 -78.3286 227° Southwest 280 322 9,700 -968 Descending Washington Center
Wed 08:30:37 PM 36.0256 -78.3836 231° Southwest 291 335 9,000 -990 Descending Washington Center
Wed 08:31:35 PM 35.9800 -78.4564 232° Southwest 272 313 8,000 -1,029 Descending Washington Center
Wed 08:31:47 PM 35.9714 -78.4664 223° Southwest 262 302 7,800 -984 Descending Washington Center
Wed 08:32:36 PM 35.9344 -78.5242 232° Southwest 267 307 7,000 -1,082 Descending Washington Center
Wed 08:32:48 PM 35.9194 -78.5389 218° Southwest 262 302 6,700 -984 Descending Washington Center
Wed 08:33:37 PM 35.8867 -78.5967 235° Southwest 267 307 6,000 -936 Descending Washington Center
Wed 08:34:37 PM 35.8456 -78.6567 230° Southwest 272 313 5,000 -1,053 Descending Washington Center
Wed 08:35:48 PM 35.7872 -78.7389 229° Southwest 226 260 3,700 -1,045 Descending Washington Center
Wed 08:36:49 PM 35.7750 -78.8025 257° West 190 219 2,700 -900 Descending Washington Center
Wed 08:38:48 PM 35.8472 -78.8336 349° North 132 152 1,000 -857 Descending Washington Center

Login

Don't have an account? Register now (free) for customized features, flight alerts, and more!